sensor_id;sensor_type;location;lat;lon;timestamp;pressure;altitude;pressure_sealevel;temperature;humidity
76611;BME280;65503;48.534;9.062;2022-12-20T00:02:19;97548.16;;;4.26;71.00
76611;BME280;65503;48.534;9.062;2022-12-20T00:04:46;97547.34;;;4.25;71.46
76611;BME280;65503;48.534;9.062;2022-12-20T00:07:12;97538.19;;;4.29;71.08
76611;BME280;65503;48.534;9.062;2022-12-20T00:09:39;97543.88;;;4.33;70.79
76611;BME280;65503;48.534;9.062;2022-12-20T00:12:05;97542.75;;;4.27;70.60
76611;BME280;65503;48.534;9.062;2022-12-20T00:14:32;97539.38;;;4.27;70.90
76611;BME280;65503;48.534;9.062;2022-12-20T00:16:58;97532.88;;;4.23;71.09
76611;BME280;65503;48.534;9.062;2022-12-20T00:19:25;97531.25;;;4.22;70.31
76611;BME280;65503;48.534;9.062;2022-12-20T00:21:51;97533.25;;;4.20;70.95
76611;BME280;65503;48.534;9.062;2022-12-20T00:24:18;97527.38;;;4.18;70.45
76611;BME280;65503;48.534;9.062;2022-12-20T00:26:51;97517.94;;;4.16;70.99
76611;BME280;65503;48.534;9.062;2022-12-20T00:29:18;97522.59;;;4.06;71.64
76611;BME280;65503;48.534;9.062;2022-12-20T00:31:44;97534.63;;;4.07;71.28
76611;BME280;65503;48.534;9.062;2022-12-20T00:34:11;97515.75;;;4.05;72.19
76611;BME280;65503;48.534;9.062;2022-12-20T00:36:38;97518.38;;;4.05;72.35
76611;BME280;65503;48.534;9.062;2022-12-20T00:39:05;97515.44;;;4.08;70.99
76611;BME280;65503;48.534;9.062;2022-12-20T00:41:32;97514.13;;;4.04;71.65
76611;BME280;65503;48.534;9.062;2022-12-20T00:44:00;97520.84;;;3.99;72.46
76611;BME280;65503;48.534;9.062;2022-12-20T00:46:27;97514.13;;;4.04;72.02
76611;BME280;65503;48.534;9.062;2022-12-20T00:48:54;97518.03;;;4.08;72.25
76611;BME280;65503;48.534;9.062;2022-12-20T00:51:24;97506.91;;;4.14;72.41
76611;BME280;65503;48.534;9.062;2022-12-20T00:53:52;97509.25;;;4.09;73.12
76611;BME280;65503;48.534;9.062;2022-12-20T00:56:19;97503.66;;;4.12;73.14
76611;BME280;65503;48.534;9.062;2022-12-20T00:58:46;97496.78;;;4.20;73.56
76611;BME280;65503;48.534;9.062;2022-12-20T01:01:24;97510.91;;;4.02;73.37
76611;BME280;65503;48.534;9.062;2022-12-20T01:03:52;97517.94;;;3.71;75.56
76611;BME280;65503;48.534;9.062;2022-12-20T01:06:20;97520.16;;;3.82;76.63
76611;BME280;65503;48.534;9.062;2022-12-20T01:08:46;97506.84;;;4.23;75.07
76611;BME280;65503;48.534;9.062;2022-12-20T01:11:20;97510.63;;;4.20;74.42
76611;BME280;65503;48.534;9.062;2022-12-20T01:13:50;97513.69;;;4.01;75.23
76611;BME280;65503;48.534;9.062;2022-12-20T01:16:23;97518.44;;;4.20;74.71
76611;BME280;65503;48.534;9.062;2022-12-20T01:18:50;97514.59;;;4.31;75.34
76611;BME280;65503;48.534;9.062;2022-12-20T01:21:18;97519.09;;;4.37;74.42
76611;BME280;65503;48.534;9.062;2022-12-20T01:23:47;97527.09;;;4.50;74.40
76611;BME280;65503;48.534;9.062;2022-12-20T01:26:16;97535.28;;;4.47;75.02
76611;BME280;65503;48.534;9.062;2022-12-20T01:28:44;97525.06;;;4.60;74.49
76611;BME280;65503;48.534;9.062;2022-12-20T01:31:14;97519.75;;;4.68;74.88
76611;BME280;65503;48.534;9.062;2022-12-20T01:33:42;97513.75;;;4.82;73.54
76611;BME280;65503;48.534;9.062;2022-12-20T01:36:14;97511.94;;;4.97;72.63
76611;BME280;65503;48.534;9.062;2022-12-20T01:38:42;97511.22;;;5.04;72.29
76611;BME280;65503;48.534;9.062;2022-12-20T01:41:13;97518.06;;;5.05;71.57
76611;BME280;65503;48.534;9.062;2022-12-20T01:46:14;97507.81;;;4.88;71.11
76611;BME280;65503;48.534;9.062;2022-12-20T01:48:42;97515.81;;;4.72;71.66
76611;BME280;65503;48.534;9.062;2022-12-20T01:51:11;97511.94;;;4.68;71.64
76611;BME280;65503;48.534;9.062;2022-12-20T01:53:38;97514.38;;;4.70;71.50
76611;BME280;65503;48.534;9.062;2022-12-20T01:56:05;97496.28;;;4.68;71.12
76611;BME280;65503;48.534;9.062;2022-12-20T01:58:35;97489.47;;;4.67;71.36
76611;BME280;65503;48.534;9.062;2022-12-20T02:01:03;97489.47;;;4.67;71.67
76611;BME280;65503;48.534;9.062;2022-12-20T02:03:31;97484.63;;;4.64;71.85
76611;BME280;65503;48.534;9.062;2022-12-20T02:06:13;97484.63;;;4.64;72.12
76611;BME280;65503;48.534;9.062;2022-12-20T02:08:39;97492.69;;;4.40;74.52
76611;BME280;65503;48.534;9.062;2022-12-20T02:11:28;97472.84;;;4.53;74.65
76611;BME280;65503;48.534;9.062;2022-12-20T02:14:24;97463.75;;;4.35;76.05
76611;BME280;65503;48.534;9.062;2022-12-20T02:17:01;97456.22;;;4.69;75.05
76611;BME280;65503;48.534;9.062;2022-12-20T02:19:54;97474.81;;;4.95;73.52
76611;BME280;65503;48.534;9.062;2022-12-20T02:22:38;97467.53;;;5.06;72.81
76611;BME280;65503;48.534;9.062;2022-12-20T02:30:37;97454.03;;;5.17;72.03
76611;BME280;65503;48.534;9.062;2022-12-20T02:33:07;97457.63;;;5.16;72.31
76611;BME280;65503;48.534;9.062;2022-12-20T02:35:38;97460.47;;;5.21;72.00
76611;BME280;65503;48.534;9.062;2022-12-20T02:38:30;97454.03;;;5.17;71.45
76611;BME280;65503;48.534;9.062;2022-12-20T02:41:10;97465.44;;;5.16;71.90
76611;BME280;65503;48.534;9.062;2022-12-20T02:43:41;97466.34;;;5.23;70.85
76611;BME280;65503;48.534;9.062;2022-12-20T02:46:28;97466.81;;;5.12;71.41
76611;BME280;65503;48.534;9.062;2022-12-20T02:48:58;97462.31;;;5.06;70.49
76611;BME280;65503;48.534;9.062;2022-12-20T02:51:27;97469.50;;;5.04;70.79
76611;BME280;65503;48.534;9.062;2022-12-20T02:53:56;97461.84;;;5.02;71.07
76611;BME280;65503;48.534;9.062;2022-12-20T02:56:34;97461.25;;;5.00;70.77
76611;BME280;65503;48.534;9.062;2022-12-20T02:59:10;97440.56;;;4.98;70.91
76611;BME280;65503;48.534;9.062;2022-12-20T03:01:41;97446.41;;;5.01;70.84
76611;BME280;65503;48.534;9.062;2022-12-20T03:04:11;97448.47;;;4.90;71.07
76611;BME280;65503;48.534;9.062;2022-12-20T03:06:39;97457.41;;;4.67;72.80
76611;BME280;65503;48.534;9.062;2022-12-20T03:09:20;97438.03;;;4.90;72.49
76611;BME280;65503;48.534;9.062;2022-12-20T03:11:47;97441.28;;;4.92;71.15
76611;BME280;65503;48.534;9.062;2022-12-20T03:14:13;97428.00;;;4.87;71.37
76611;BME280;65503;48.534;9.062;2022-12-20T03:16:40;97436.69;;;4.80;70.55
76611;BME280;65503;48.534;9.062;2022-12-20T03:19:06;97425.66;;;4.78;70.90
76611;BME280;65503;48.534;9.062;2022-12-20T03:21:33;97422.97;;;4.71;70.17
76611;BME280;65503;48.534;9.062;2022-12-20T03:23:59;97421.25;;;4.64;70.16
76611;BME280;65503;48.534;9.062;2022-12-20T03:26:26;97408.25;;;4.49;70.15
76611;BME280;65503;48.534;9.062;2022-12-20T03:28:52;97414.19;;;4.43;70.97
76611;BME280;65503;48.534;9.062;2022-12-20T03:31:19;97417.50;;;4.37;70.24
76611;BME280;65503;48.534;9.062;2022-12-20T03:33:46;97412.63;;;4.34;70.62
76611;BME280;65503;48.534;9.062;2022-12-20T03:36:12;97426.38;;;4.28;70.93
76611;BME280;65503;48.534;9.062;2022-12-20T03:38:39;97424.78;;;4.27;70.45
76611;BME280;65503;48.534;9.062;2022-12-20T03:41:05;97426.75;;;4.25;70.76
76611;BME280;65503;48.534;9.062;2022-12-20T03:43:32;97409.50;;;4.24;70.55
76611;BME280;65503;48.534;9.062;2022-12-20T03:45:58;97409.84;;;4.21;71.38
76611;BME280;65503;48.534;9.062;2022-12-20T03:48:25;97423.75;;;4.13;71.85
76611;BME280;65503;48.534;9.062;2022-12-20T03:50:51;97428.69;;;4.23;71.54
76611;BME280;65503;48.534;9.062;2022-12-20T03:53:18;97425.75;;;4.26;71.20
76611;BME280;65503;48.534;9.062;2022-12-20T03:55:44;97416.03;;;4.34;71.60
76611;BME280;65503;48.534;9.062;2022-12-20T03:58:11;97415.16;;;4.42;71.37
76611;BME280;65503;48.534;9.062;2022-12-20T04:00:37;97421.88;;;4.51;71.50
76611;BME280;65503;48.534;9.062;2022-12-20T04:03:04;97409.50;;;4.53;71.27
76611;BME280;65503;48.534;9.062;2022-12-20T04:05:31;97409.59;;;4.60;70.94
76611;BME280;65503;48.534;9.062;2022-12-20T04:07:57;97397.97;;;4.62;71.11
76611;BME280;65503;48.534;9.062;2022-12-20T04:10:24;97401.84;;;4.51;72.55
76611;BME280;65503;48.534;9.062;2022-12-20T04:12:50;97390.81;;;4.64;72.03
76611;BME280;65503;48.534;9.062;2022-12-20T04:15:17;97403.03;;;4.78;71.61
76611;BME280;65503;48.534;9.062;2022-12-20T04:17:43;97399.13;;;4.74;71.92
76611;BME280;65503;48.534;9.062;2022-12-20T04:20:14;97395.00;;;4.80;71.62
76611;BME280;65503;48.534;9.062;2022-12-20T04:22:47;97399.66;;;4.84;71.04
76611;BME280;65503;48.534;9.062;2022-12-20T04:25:17;97405.16;;;4.89;70.95
76611;BME280;65503;48.534;9.062;2022-12-20T04:27:44;97408.03;;;4.94;71.53
76611;BME280;65503;48.534;9.062;2022-12-20T04:30:11;97411.22;;;4.96;70.76
76611;BME280;65503;48.534;9.062;2022-12-20T04:32:38;97404.41;;;4.95;70.68
76611;BME280;65503;48.534;9.062;2022-12-20T04:35:05;97393.97;;;4.95;70.67
76611;BME280;65503;48.534;9.062;2022-12-20T04:37:32;97394.34;;;4.92;70.42
76611;BME280;65503;48.534;9.062;2022-12-20T04:39:58;97389.31;;;4.91;70.65
76611;BME280;65503;48.534;9.062;2022-12-20T04:42:25;97389.94;;;4.93;70.38
76611;BME280;65503;48.534;9.062;2022-12-20T04:44:51;97387.97;;;4.95;70.82
76611;BME280;65503;48.534;9.062;2022-12-20T04:47:18;97383.53;;;4.95;70.30
76611;BME280;65503;48.534;9.062;2022-12-20T04:49:44;97388.59;;;4.97;70.22
76611;BME280;65503;48.534;9.062;2022-12-20T04:52:11;97373.91;;;4.96;70.54
76611;BME280;65503;48.534;9.062;2022-12-20T04:54:56;97387.16;;;4.94;70.75
76611;BME280;65503;48.534;9.062;2022-12-20T04:57:22;97379.69;;;4.91;70.55
76611;BME280;65503;48.534;9.062;2022-12-20T04:59:49;97371.88;;;4.91;70.27
76611;BME280;65503;48.534;9.062;2022-12-20T05:02:15;97360.28;;;4.94;70.57
76611;BME280;65503;48.534;9.062;2022-12-20T05:04:42;97356.88;;;4.93;70.06
76611;BME280;65503;48.534;9.062;2022-12-20T05:07:08;97362.50;;;4.97;70.58
76611;BME280;65503;48.534;9.062;2022-12-20T05:09:35;97357.84;;;4.92;70.59
76611;BME280;65503;48.534;9.062;2022-12-20T05:12:02;97359.66;;;4.92;70.39
76611;BME280;65503;48.534;9.062;2022-12-20T05:14:28;97366.31;;;4.94;70.35
76611;BME280;65503;48.534;9.062;2022-12-20T05:16:55;97363.06;;;4.92;70.08
76611;BME280;65503;48.534;9.062;2022-12-20T05:19:21;97356.88;;;4.93;69.83
76611;BME280;65503;48.534;9.062;2022-12-20T05:21:48;97351.00;;;4.91;70.18
76611;BME280;65503;48.534;9.062;2022-12-20T05:24:32;97358.22;;;4.89;70.15
76611;BME280;65503;48.534;9.062;2022-12-20T05:27:17;97351.41;;;4.88;70.60
76611;BME280;65503;48.534;9.062;2022-12-20T05:29:44;97346.91;;;4.82;70.33
76611;BME280;65503;48.534;9.062;2022-12-20T05:32:10;97351.41;;;4.74;70.36
76611;BME280;65503;48.534;9.062;2022-12-20T05:34:37;97349.28;;;4.77;70.24
76611;BME280;65503;48.534;9.062;2022-12-20T05:37:03;97346.91;;;4.82;70.60
76611;BME280;65503;48.534;9.062;2022-12-20T05:39:30;97338.09;;;4.83;70.80
76611;BME280;65503;48.534;9.062;2022-12-20T05:41:56;97348.53;;;4.83;70.47
76611;BME280;65503;48.534;9.062;2022-12-20T05:44:23;97346.03;;;4.75;70.20
76611;BME280;65503;48.534;9.062;2022-12-20T05:46:51;97343.16;;;4.70;70.14
76611;BME280;65503;48.534;9.062;2022-12-20T05:49:17;97346.03;;;4.75;70.51
76611;BME280;65503;48.534;9.062;2022-12-20T05:51:44;97347.09;;;4.81;70.53
76611;BME280;65503;48.534;9.062;2022-12-20T05:54:10;97338.91;;;4.84;70.66
76611;BME280;65503;48.534;9.062;2022-12-20T05:56:37;97334.88;;;4.81;71.02
76611;BME280;65503;48.534;9.062;2022-12-20T05:59:03;97338.47;;;4.80;70.62
76611;BME280;65503;48.534;9.062;2022-12-20T06:01:30;97330.03;;;4.78;71.09
76611;BME280;65503;48.534;9.062;2022-12-20T06:03:56;97328.41;;;4.77;71.42
76611;BME280;65503;48.534;9.062;2022-12-20T06:06:23;97325.59;;;4.79;71.54
76611;BME280;65503;48.534;9.062;2022-12-20T06:08:50;97319.59;;;4.78;71.28
76611;BME280;65503;48.534;9.062;2022-12-20T06:11:16;97324.81;;;4.78;71.30
76611;BME280;65503;48.534;9.062;2022-12-20T06:13:43;97328.03;;;4.80;71.22
76611;BME280;65503;48.534;9.062;2022-12-20T06:16:09;97323.31;;;4.90;70.57
76611;BME280;65503;48.534;9.062;2022-12-20T06:18:36;97319.16;;;4.75;72.05
76611;BME280;65503;48.534;9.062;2022-12-20T06:21:03;97326.72;;;4.70;73.30
76611;BME280;65503;48.534;9.062;2022-12-20T06:23:29;97331.34;;;4.89;72.57
76611;BME280;65503;48.534;9.062;2022-12-20T06:25:56;97332.03;;;4.97;73.11
76611;BME280;65503;48.534;9.062;2022-12-20T06:28:23;97331.53;;;5.09;72.19
76611;BME280;65503;48.534;9.062;2022-12-20T06:30:53;97335.84;;;5.16;71.37
76611;BME280;65503;48.534;9.062;2022-12-20T06:33:20;97330.22;;;5.19;70.97
76611;BME280;65503;48.534;9.062;2022-12-20T06:35:49;97334.91;;;5.24;70.81
76611;BME280;65503;48.534;9.062;2022-12-20T06:38:15;97339.75;;;5.27;70.56
76611;BME280;65503;48.534;9.062;2022-12-20T06:40:43;97328.91;;;5.30;70.42
76611;BME280;65503;48.534;9.062;2022-12-20T06:43:09;97323.72;;;5.30;70.77
76611;BME280;65503;48.534;9.062;2022-12-20T06:45:36;97324.72;;;5.29;70.00
76611;BME280;65503;48.534;9.062;2022-12-20T06:48:07;97330.53;;;5.31;70.12
76611;BME280;65503;48.534;9.062;2022-12-20T06:50:34;97331.16;;;5.33;70.13
76611;BME280;65503;48.534;9.062;2022-12-20T06:53:00;97325.72;;;5.28;69.96
76611;BME280;65503;48.534;9.062;2022-12-20T06:55:27;97336.59;;;4.95;71.85
76611;BME280;65503;48.534;9.062;2022-12-20T06:57:54;97331.91;;;5.06;71.29
76611;BME280;65503;48.534;9.062;2022-12-20T07:00:21;97330.78;;;5.15;71.39
76611;BME280;65503;48.534;9.062;2022-12-20T07:02:48;97328.88;;;5.23;70.87
76611;BME280;65503;48.534;9.062;2022-12-20T07:05:15;97336.97;;;5.28;70.67
76611;BME280;65503;48.534;9.062;2022-12-20T07:07:41;97324.84;;;5.21;70.40
76611;BME280;65503;48.534;9.062;2022-12-20T07:10:11;97325.66;;;5.21;70.37
76611;BME280;65503;48.534;9.062;2022-12-20T07:12:37;97327.94;;;5.10;70.32
76611;BME280;65503;48.534;9.062;2022-12-20T07:15:12;97324.28;;;5.04;71.32
76611;BME280;65503;48.534;9.062;2022-12-20T07:17:39;97322.09;;;4.86;72.64
76611;BME280;65503;48.534;9.062;2022-12-20T07:20:06;97328.03;;;4.80;73.14
76611;BME280;65503;48.534;9.062;2022-12-20T07:22:39;97322.22;;;4.99;72.54
76611;BME280;65503;48.534;9.062;2022-12-20T07:25:05;97327.38;;;4.93;73.31
76611;BME280;65503;48.534;9.062;2022-12-20T07:27:32;97333.09;;;5.03;73.04
76611;BME280;65503;48.534;9.062;2022-12-20T07:29:58;97336.19;;;4.92;72.63
76611;BME280;65503;48.534;9.062;2022-12-20T07:32:25;97333.00;;;4.96;72.20
76611;BME280;65503;48.534;9.062;2022-12-20T07:34:52;97338.63;;;5.15;71.86
76611;BME280;65503;48.534;9.062;2022-12-20T07:37:18;97332.03;;;5.19;71.52
76611;BME280;65503;48.534;9.062;2022-12-20T07:39:45;97334.41;;;5.35;70.73
76611;BME280;65503;48.534;9.062;2022-12-20T07:42:11;97332.88;;;5.47;70.90
76611;BME280;65503;48.534;9.062;2022-12-20T07:44:38;97332.13;;;5.53;70.75
76611;BME280;65503;48.534;9.062;2022-12-20T07:47:05;97330.88;;;5.70;70.75
76611;BME280;65503;48.534;9.062;2022-12-20T07:49:31;97330.69;;;5.72;69.85
76611;BME280;65503;48.534;9.062;2022-12-20T07:51:58;97327.25;;;5.71;69.84
76611;BME280;65503;48.534;9.062;2022-12-20T07:54:41;97330.88;;;5.70;69.77
76611;BME280;65503;48.534;9.062;2022-12-20T07:57:12;97334.09;;;5.72;69.38
76611;BME280;65503;48.534;9.062;2022-12-20T07:59:44;97316.47;;;5.74;68.76
76611;BME280;65503;48.534;9.062;2022-12-20T08:02:19;97320.13;;;5.80;68.87
76611;BME280;65503;48.534;9.062;2022-12-20T08:04:48;97330.59;;;5.87;69.14
76611;BME280;65503;48.534;9.062;2022-12-20T08:07:16;97335.69;;;5.95;69.13
76611;BME280;65503;48.534;9.062;2022-12-20T08:09:43;97337.53;;;6.01;69.14
76611;BME280;65503;48.534;9.062;2022-12-20T08:12:12;97327.94;;;6.08;68.94
76611;BME280;65503;48.534;9.062;2022-12-20T08:14:39;97330.41;;;6.16;68.94
76611;BME280;65503;48.534;9.062;2022-12-20T08:17:06;97328.22;;;6.19;68.77
76611;BME280;65503;48.534;9.062;2022-12-20T08:19:33;97326.78;;;6.17;68.17
76611;BME280;65503;48.534;9.062;2022-12-20T08:21:59;97327.19;;;6.14;67.77
76611;BME280;65503;48.534;9.062;2022-12-20T08:24:26;97336.03;;;6.13;67.74
76611;BME280;65503;48.534;9.062;2022-12-20T08:26:52;97333.81;;;6.16;68.23
76611;BME280;65503;48.534;9.062;2022-12-20T08:29:19;97321.91;;;6.07;69.63
76611;BME280;65503;48.534;9.062;2022-12-20T08:31:46;97314.50;;;6.11;69.58
76611;BME280;65503;48.534;9.062;2022-12-20T08:34:16;97306.81;;;6.37;69.01
76611;BME280;65503;48.534;9.062;2022-12-20T08:36:43;97307.47;;;6.52;68.05
76611;BME280;65503;48.534;9.062;2022-12-20T08:39:09;97310.94;;;6.73;68.11
76611;BME280;65503;48.534;9.062;2022-12-20T08:41:36;97298.91;;;6.85;67.12
76611;BME280;65503;48.534;9.062;2022-12-20T08:44:04;97298.69;;;6.80;66.32
76611;BME280;65503;48.534;9.062;2022-12-20T08:46:31;97295.22;;;6.59;68.18
76611;BME280;65503;48.534;9.062;2022-12-20T08:48:58;97297.28;;;6.84;68.12
76611;BME280;65503;48.534;9.062;2022-12-20T08:51:24;97300.16;;;6.89;68.11
76611;BME280;65503;48.534;9.062;2022-12-20T08:53:51;97302.56;;;6.97;67.74
76611;BME280;65503;48.534;9.062;2022-12-20T08:56:18;97292.16;;;7.17;67.14
76611;BME280;65503;48.534;9.062;2022-12-20T08:58:45;97310.47;;;7.36;66.65
76611;BME280;65503;48.534;9.062;2022-12-20T09:01:14;97297.00;;;7.39;66.88
76611;BME280;65503;48.534;9.062;2022-12-20T09:03:42;97303.03;;;7.33;67.22
76611;BME280;65503;48.534;9.062;2022-12-20T09:06:14;97308.25;;;7.20;67.41
76611;BME280;65503;48.534;9.062;2022-12-20T09:08:41;97303.38;;;6.97;67.97
76611;BME280;65503;48.534;9.062;2022-12-20T09:11:08;97296.97;;;7.13;67.73
76611;BME280;65503;48.534;9.062;2022-12-20T09:13:38;97295.97;;;7.21;68.17
76611;BME280;65503;48.534;9.062;2022-12-20T09:16:11;97287.72;;;7.30;67.53
76611;BME280;65503;48.534;9.062;2022-12-20T09:18:38;97284.50;;;7.68;67.67
76611;BME280;65503;48.534;9.062;2022-12-20T09:21:06;97284.84;;;7.98;66.15
76611;BME280;65503;48.534;9.062;2022-12-20T09:23:33;97285.22;;;8.14;65.86
76611;BME280;65503;48.534;9.062;2022-12-20T09:26:05;97280.31;;;8.38;65.42
76611;BME280;65503;48.534;9.062;2022-12-20T09:28:32;97284.91;;;8.49;64.10
76611;BME280;65503;48.534;9.062;2022-12-20T09:31:01;97296.47;;;8.28;62.95
76611;BME280;65503;48.534;9.062;2022-12-20T09:33:29;97289.25;;;8.10;63.99
76611;BME280;65503;48.534;9.062;2022-12-20T09:35:57;97290.41;;;8.41;63.84
76611;BME280;65503;48.534;9.062;2022-12-20T09:38:24;97295.19;;;8.50;64.06
76611;BME280;65503;48.534;9.062;2022-12-20T09:40:53;97287.81;;;8.79;63.47
76611;BME280;65503;48.534;9.062;2022-12-20T09:43:21;97298.22;;;8.98;62.68
76611;BME280;65503;48.534;9.062;2022-12-20T09:45:51;97284.81;;;9.06;62.36
76611;BME280;65503;48.534;9.062;2022-12-20T09:48:21;97290.03;;;9.13;62.02
76611;BME280;65503;48.534;9.062;2022-12-20T09:50:52;97292.63;;;8.88;62.27
76611;BME280;65503;48.534;9.062;2022-12-20T09:56:54;97276.00;;;9.26;60.95
76611;BME280;65503;48.534;9.062;2022-12-20T09:59:05;97251.53;;;9.32;61.39
76611;BME280;65503;48.534;9.062;2022-12-20T10:01:33;97252.75;;;9.54;61.01
76611;BME280;65503;48.534;9.062;2022-12-20T10:04:10;97255.28;;;9.67;60.26
76611;BME280;65503;48.534;9.062;2022-12-20T10:06:47;97251.84;;;9.42;60.08
76611;BME280;65503;48.534;9.062;2022-12-20T10:09:52;97249.25;;;8.79;62.09
76611;BME280;65503;48.534;9.062;2022-12-20T10:12:46;97264.47;;;8.64;63.10
76611;BME280;65503;48.534;9.062;2022-12-20T10:15:32;97255.78;;;9.01;62.16
76611;BME280;65503;48.534;9.062;2022-12-20T10:24:03;97238.91;;;8.91;61.33
76611;BME280;65503;48.534;9.062;2022-12-20T10:26:31;97231.38;;;8.69;62.47
76611;BME280;65503;48.534;9.062;2022-12-20T10:28:58;97231.56;;;8.68;62.39
76611;BME280;65503;48.534;9.062;2022-12-20T10:31:25;97223.28;;;8.71;62.30
76611;BME280;65503;48.534;9.062;2022-12-20T10:33:52;97223.69;;;8.68;63.10
76611;BME280;65503;48.534;9.062;2022-12-20T10:36:28;97216.44;;;8.70;63.33
76611;BME280;65503;48.534;9.062;2022-12-20T10:39:00;97218.03;;;8.71;63.26
76611;BME280;65503;48.534;9.062;2022-12-20T10:41:53;97228.09;;;8.43;63.42
76611;BME280;65503;48.534;9.062;2022-12-20T10:44:25;97221.94;;;8.04;64.77
76611;BME280;65503;48.534;9.062;2022-12-20T10:46:55;97215.88;;;8.10;65.31
76611;BME280;65503;48.534;9.062;2022-12-20T10:49:34;97208.16;;;8.22;64.77
76611;BME280;65503;48.534;9.062;2022-12-20T10:54:38;97199.66;;;8.40;64.55
76611;BME280;65503;48.534;9.062;2022-12-20T10:59:52;97205.59;;;8.60;63.72
76611;BME280;65503;48.534;9.062;2022-12-20T11:02:25;97203.53;;;8.68;63.77
76611;BME280;65503;48.534;9.062;2022-12-20T11:07:55;97187.81;;;8.62;63.14
76611;BME280;65503;48.534;9.062;2022-12-20T11:10:43;97170.81;;;8.71;63.61
76611;BME280;65503;48.534;9.062;2022-12-20T11:13:23;97172.84;;;8.69;63.01
76611;BME280;65503;48.534;9.062;2022-12-20T11:15:53;97179.69;;;8.70;63.63
76611;BME280;65503;48.534;9.062;2022-12-20T11:18:35;97183.00;;;8.14;63.62
76611;BME280;65503;48.534;9.062;2022-12-20T11:26:39;97153.63;;;8.44;64.16
76611;BME280;65503;48.534;9.062;2022-12-20T11:37:25;97146.84;;;8.92;63.10
76611;BME280;65503;48.534;9.062;2022-12-20T11:40:05;97135.75;;;8.90;62.66
76611;BME280;65503;48.534;9.062;2022-12-20T11:42:54;97133.50;;;8.94;62.53
76611;BME280;65503;48.534;9.062;2022-12-20T11:45:38;97126.44;;;8.69;61.97
76611;BME280;65503;48.534;9.062;2022-12-20T11:51:20;97122.38;;;7.98;63.60
76611;BME280;65503;48.534;9.062;2022-12-20T11:54:00;97125.97;;;8.03;64.31
76611;BME280;65503;48.534;9.062;2022-12-20T11:56:39;97122.63;;;8.27;64.02
76611;BME280;65503;48.534;9.062;2022-12-20T11:59:34;97125.72;;;8.56;63.56
76611;BME280;65503;48.534;9.062;2022-12-20T12:02:15;97101.06;;;8.63;63.95
76611;BME280;65503;48.534;9.062;2022-12-20T12:05:00;97105.81;;;8.73;63.81
76611;BME280;65503;48.534;9.062;2022-12-20T12:07:31;97096.06;;;8.80;63.57
76611;BME280;65503;48.534;9.062;2022-12-20T12:10:02;97100.53;;;8.80;63.80
76611;BME280;65503;48.534;9.062;2022-12-20T12:12:45;97088.03;;;8.75;63.98
76611;BME280;65503;48.534;9.062;2022-12-20T12:15:51;97083.38;;;8.77;63.73
76611;BME280;65503;48.534;9.062;2022-12-20T12:18:23;97084.00;;;8.97;64.14
76611;BME280;65503;48.534;9.062;2022-12-20T12:23:47;97088.59;;;9.45;63.23
76611;BME280;65503;48.534;9.062;2022-12-20T12:26:26;97091.91;;;9.70;61.96
76611;BME280;65503;48.534;9.062;2022-12-20T12:28:55;97091.19;;;9.63;61.75
76611;BME280;65503;48.534;9.062;2022-12-20T12:31:33;97100.72;;;9.03;62.49
76611;BME280;65503;48.534;9.062;2022-12-20T12:34:08;97098.84;;;8.85;63.34
76611;BME280;65503;48.534;9.062;2022-12-20T12:45:04;97074.91;;;8.50;64.91
76611;BME280;65503;48.534;9.062;2022-12-20T12:47:39;97067.78;;;8.33;64.73
76611;BME280;65503;48.534;9.062;2022-12-20T12:50:33;97062.53;;;8.33;65.57
76611;BME280;65503;48.534;9.062;2022-12-20T12:53:23;97060.56;;;8.21;65.93
76611;BME280;65503;48.534;9.062;2022-12-20T12:55:53;97060.84;;;8.45;65.52
76611;BME280;65503;48.534;9.062;2022-12-20T12:58:40;97060.19;;;8.74;64.46
76611;BME280;65503;48.534;9.062;2022-12-20T13:04:22;97055.94;;;8.98;63.85
76611;BME280;65503;48.534;9.062;2022-12-20T13:11:53;97075.09;;;8.80;63.12
76611;BME280;65503;48.534;9.062;2022-12-20T13:19:51;97073.53;;;8.10;65.64
76611;BME280;65503;48.534;9.062;2022-12-20T13:22:20;97069.00;;;7.92;65.78
76611;BME280;65503;48.534;9.062;2022-12-20T13:27:35;97061.94;;;7.93;66.31
76611;BME280;65503;48.534;9.062;2022-12-20T13:38:04;97049.50;;;7.88;67.21
76611;BME280;65503;48.534;9.062;2022-12-20T13:40:47;97041.41;;;7.96;66.57
76611;BME280;65503;48.534;9.062;2022-12-20T13:45:47;97036.31;;;8.33;65.37
76611;BME280;65503;48.534;9.062;2022-12-20T13:48:15;97031.44;;;8.43;65.28
76611;BME280;65503;48.534;9.062;2022-12-20T13:50:48;97020.41;;;8.59;64.63
76611;BME280;65503;48.534;9.062;2022-12-20T13:53:18;97011.22;;;8.68;63.84
76611;BME280;65503;48.534;9.062;2022-12-20T13:55:45;97022.97;;;8.84;63.77
76611;BME280;65503;48.534;9.062;2022-12-20T13:58:24;96999.03;;;8.98;63.94
76611;BME280;65503;48.534;9.062;2022-12-20T14:00:53;97005.34;;;8.91;63.35
76611;BME280;65503;48.534;9.062;2022-12-20T14:03:29;96993.53;;;9.00;63.34
76611;BME280;65503;48.534;9.062;2022-12-20T14:06:00;96997.13;;;8.87;64.09
76611;BME280;65503;48.534;9.062;2022-12-20T14:08:32;97001.91;;;8.90;63.99
76611;BME280;65503;48.534;9.062;2022-12-20T14:11:13;96988.22;;;9.06;64.19
76611;BME280;65503;48.534;9.062;2022-12-20T14:13:41;97001.28;;;9.13;63.25
76611;BME280;65503;48.534;9.062;2022-12-20T14:16:16;96988.94;;;9.32;63.18
76611;BME280;65503;48.534;9.062;2022-12-20T14:18:48;96990.31;;;9.34;63.20
76611;BME280;65503;48.534;9.062;2022-12-20T14:21:15;96987.69;;;9.34;63.79
76611;BME280;65503;48.534;9.062;2022-12-20T14:23:46;96970.69;;;9.37;63.85
76611;BME280;65503;48.534;9.062;2022-12-20T14:26:21;96986.75;;;9.29;64.34
76611;BME280;65503;48.534;9.062;2022-12-20T14:28:51;96988.19;;;9.43;63.85
76611;BME280;65503;48.534;9.062;2022-12-20T14:34:01;96994.91;;;9.39;64.08
76611;BME280;65503;48.534;9.062;2022-12-20T14:36:28;96994.34;;;9.19;64.41
76611;BME280;65503;48.534;9.062;2022-12-20T14:38:56;96998.28;;;9.09;65.01
76611;BME280;65503;48.534;9.062;2022-12-20T14:41:37;96997.41;;;8.97;65.52
76611;BME280;65503;48.534;9.062;2022-12-20T14:46:34;97006.28;;;8.78;65.59
76611;BME280;65503;48.534;9.062;2022-12-20T14:49:06;96986.88;;;8.61;65.57
76611;BME280;65503;48.534;9.062;2022-12-20T14:51:34;96972.38;;;8.58;65.98
76611;BME280;65503;48.534;9.062;2022-12-20T14:54:01;96976.03;;;8.57;66.14